createdAt,value
2023-04-15T00:01:19.919Z,97404.80801283565
2023-04-15T00:04:17.245Z,97400.97805895747
2023-04-15T00:07:18.360Z,97395.64328724831
2023-04-15T00:11:17.227Z,97393.70048452538
2023-04-15T00:14:16.896Z,97396.04459215801
2023-04-15T00:17:17.992Z,97397.90658313483
2023-04-15T00:21:16.413Z,97390.13078319111
2023-04-15T00:24:16.825Z,97380.22019575554
2023-04-15T00:27:16.954Z,97372.12563572642
2023-04-15T00:31:16.941Z,97361.75190885333
2023-04-15T00:34:17.256Z,97357.8775096555
2023-04-15T00:37:16.393Z,97356.43984852498
2023-04-15T00:41:16.790Z,97348.78025718371
2023-04-15T00:44:16.528Z,97348.80280134422
2023-04-15T00:47:17.405Z,97351.94252417874
2023-04-15T00:51:16.885Z,97345.17469218899
2023-04-15T00:54:17.201Z,97343.03046496972
2023-04-15T00:57:17.180Z,97342.01630811986
2023-04-15T01:01:17.745Z,97333.12318670069
2023-04-15T01:04:17.493Z,97338.07512462641
2023-04-15T01:07:17.966Z,97336.92662735166
2023-04-15T01:11:17.129Z,97336.64308779394
2023-04-15T01:14:16.540Z,97336.01438157012
2023-04-15T01:17:16.918Z,97339.379555461
2023-04-15T01:21:16.948Z,97337.4903316985
2023-04-15T01:24:18.435Z,97336.82535485063
2023-04-15T01:27:17.163Z,97340.18014800036
2023-04-15T01:31:16.817Z,97344.53929127172
2023-04-15T01:34:16.792Z,97338.67229128048
2023-04-15T01:37:16.560Z,97337.90793143964
2023-04-15T01:41:20.627Z,97326.86304075106
2023-04-15T01:44:16.766Z,97322.50207511713
2023-04-15T01:47:16.625Z,97314.9998813767
2023-04-15T01:51:17.133Z,97314.08987134536
2023-04-15T01:54:17.223Z,97320.32243504415
2023-04-15T01:57:17.644Z,97317.82458984051
2023-04-15T02:01:17.406Z,97302.79063151553
2023-04-15T02:04:17.620Z,97296.24233725994
2023-04-15T02:07:16.553Z,97292.73440959827
2023-04-15T02:11:16.110Z,97284.80964793512
2023-04-15T02:14:16.661Z,97291.90424057418
2023-04-15T02:17:16.580Z,97294.35961634587
2023-04-15T02:21:16.820Z,97289.8552067056
2023-04-15T02:24:17.128Z,97305.95145647615
2023-04-15T02:27:18.652Z,97305.56138669548
2023-04-15T02:31:17.032Z,97304.40778267824
2023-04-15T02:34:16.930Z,97306.70223264523
2023-04-15T02:37:17.414Z,97301.10115340793
2023-04-15T02:41:16.569Z,97295.16946753896
2023-04-15T02:44:19.293Z,97300.83520350824
2023-04-15T02:47:16.864Z,97307.85412972044
2023-04-15T02:51:18.773Z,97299.07161345321
2023-04-15T02:54:17.321Z,97283.43752003892
2023-04-15T02:57:16.807Z,97284.28698785833
2023-04-15T03:01:17.115Z,97269.76724983283
2023-04-15T03:04:17.620Z,97271.12965121432
2023-04-15T03:07:17.800Z,97263.14282417018
2023-04-15T03:11:17.360Z,97261.15298031986
2023-04-15T03:14:17.166Z,97265.22198710419
2023-04-15T03:17:17.658Z,97260.76545462215
2023-04-15T03:21:16.070Z,97255.99163522574
2023-04-15T03:24:16.547Z,97261.05465685949
2023-04-15T03:27:16.338Z,97260.22209992465
2023-04-15T03:31:16.302Z,97258.65067182029
2023-04-15T03:34:16.777Z,97249.906340557
2023-04-15T03:37:16.880Z,97244.7245941027
2023-04-15T03:41:16.444Z,97249.51936109629
2023-04-15T03:44:16.870Z,97246.62379245817
2023-04-15T03:47:16.977Z,97247.18541817603
2023-04-15T03:51:16.966Z,97241.6938504141
2023-04-15T03:54:17.154Z,97244.37978331359
2023-04-15T03:57:17.095Z,97242.17143445095
2023-04-15T04:01:16.804Z,97247.58602505711
2023-04-15T04:04:17.010Z,97244.50301033612
2023-04-15T04:07:16.970Z,97248.15042285113
2023-04-15T04:11:16.645Z,97270.6154978484
2023-04-15T04:14:16.880Z,97288.46000452674
2023-04-15T04:17:16.676Z,97286.4877351505
2023-04-15T04:21:16.813Z,97275.32044862502
2023-04-15T04:24:17.227Z,97275.2413473154
2023-04-15T04:27:17.101Z,97265.82800408656
2023-04-15T04:31:18.162Z,97254.43095835399
2023-04-15T04:34:16.966Z,97250.09986959191
2023-04-15T04:37:17.147Z,97245.82381937209
2023-04-15T04:41:17.327Z,97245.06781584164
2023-04-15T04:44:17.446Z,97248.93864818367
2023-04-15T04:47:17.474Z,97249.09044381967
2023-04-15T04:51:17.082Z,97227.8285613567
2023-04-15T04:54:17.520Z,97234.45110043704
2023-04-15T04:57:16.836Z,97247.89835102139
2023-04-15T05:01:16.987Z,97245.00255469512
2023-04-15T05:04:16.936Z,97250.95969354096
2023-04-15T05:07:16.934Z,97254.70940483475
2023-04-15T05:11:16.631Z,97244.19640263643
2023-04-15T05:14:16.829Z,97235.71875397753
2023-04-15T05:17:16.796Z,97241.27698971351
2023-04-15T05:21:17.085Z,97236.35089319499
2023-04-15T05:24:17.132Z,97228.86016304768
2023-04-15T05:27:17.397Z,97224.32722438914
2023-04-15T05:31:16.374Z,97206.05138979043
2023-04-15T05:34:17.583Z,97199.12053157148
2023-04-15T05:37:16.868Z,97200.91588269138
2023-04-15T05:41:19.548Z,97189.8968077994
2023-04-15T05:44:16.911Z,97191.56446061656
2023-04-15T05:47:17.062Z,97189.72051635126
2023-04-15T05:51:16.300Z,97187.05782552474
2023-04-15T05:54:19.999Z,97185.41287520301
2023-04-15T05:57:16.973Z,97178.3743334406
2023-04-15T06:01:17.533Z,97177.07198598207
2023-04-15T06:04:17.995Z,97182.15756288827
2023-04-15T06:07:17.316Z,97185.91946722288
2023-04-15T06:11:16.254Z,97180.8361585973
2023-04-15T06:14:19.110Z,97176.29333440005
2023-04-15T06:17:19.738Z,97162.37805371513
2023-04-15T06:21:18.229Z,97167.66446796335
2023-04-15T06:24:17.093Z,97169.9886329018
2023-04-15T06:27:18.926Z,97178.36915351175
2023-04-15T06:31:18.161Z,97188.50904113651
2023-04-15T06:34:17.750Z,97183.9969026869
2023-04-15T06:37:18.668Z,97179.74669779018
2023-04-15T06:41:17.600Z,97172.38134818817
2023-04-15T06:44:18.445Z,97172.35203412236
2023-04-15T06:47:19.129Z,97173.67433552697
2023-04-15T06:51:16.668Z,97176.62740085735
2023-04-15T06:54:17.031Z,97180.12031897364
2023-04-15T06:57:16.970Z,97179.32573758627
2023-04-15T07:01:16.345Z,97190.26428996265
2023-04-15T07:04:16.806Z,97186.99347264654
2023-04-15T07:07:18.053Z,97193.89153097528
2023-04-15T07:11:17.921Z,97198.16452932726
2023-04-15T07:14:17.550Z,97197.88627132736
2023-04-15T07:17:17.346Z,97197.55039988834
2023-04-15T07:21:18.498Z,97204.64997781774
2023-04-15T07:24:19.984Z,97206.38762633302
2023-04-15T07:27:18.498Z,97210.23915131552
2023-04-15T07:31:17.325Z,97216.24453978066
2023-04-15T07:34:18.945Z,97215.76783448571
2023-04-15T07:37:18.036Z,97214.14241284768
2023-04-15T07:41:17.022Z,97223.47188207631
2023-04-15T07:44:17.115Z,97226.75784205523
2023-04-15T07:47:18.252Z,97220.58516502465
2023-04-15T07:51:18.212Z,97214.02125487322
2023-04-15T07:54:17.391Z,97217.05172258691
2023-04-15T07:57:18.128Z,97223.3536200382
2023-04-15T08:01:19.556Z,97216.3737232703
2023-04-15T08:04:17.717Z,97221.90576044151
2023-04-15T08:07:17.555Z,97220.91833015476
2023-04-15T08:11:18.375Z,97228.15690191142
2023-04-15T08:14:18.804Z,97230.55242937869
2023-04-15T08:17:18.665Z,97231.8907742488
2023-04-15T08:21:16.943Z,97232.22161566351
2023-04-15T08:24:19.980Z,97227.4101037473
2023-04-15T08:27:18.544Z,97220.0078121598
2023-04-15T08:31:20.860Z,97221.60197654089
2023-04-15T08:34:17.064Z,97217.6150921573
2023-04-15T08:37:17.412Z,97214.3948427927
2023-04-15T08:41:22.164Z,97221.76535140019
2023-04-15T08:44:17.549Z,97227.0279547842
2023-04-15T08:47:20.622Z,97222.38903476197
2023-04-15T08:51:17.730Z,97217.33363879351
2023-04-15T08:54:18.387Z,97216.36856021437
2023-04-15T08:57:17.807Z,97222.19308086194
2023-04-15T09:01:16.501Z,97231.26621992199
2023-04-15T09:04:17.471Z,97230.67190589196
2023-04-15T09:07:17.248Z,97232.44154951721
2023-04-15T09:11:20.762Z,97231.09944335747
2023-04-15T09:14:17.401Z,97223.94240133332
2023-04-15T09:17:19.505Z,97227.06539839326
2023-04-15T09:21:17.805Z,97221.99143258369
2023-04-15T09:24:17.148Z,97221.14922318269
2023-04-15T09:27:16.918Z,97225.79988299584
2023-04-15T09:31:16.347Z,97217.98547649496
2023-04-15T09:41:18.724Z,97211.90383351673
2023-04-15T09:44:25.212Z,97209.59252054295
2023-04-15T09:47:32.760Z,97209.574743067
2023-04-15T09:51:16.609Z,97203.45440376425
2023-04-15T09:54:18.811Z,97196.39238318695
2023-04-15T09:57:16.933Z,97197.50886949856
2023-04-15T10:01:16.997Z,97193.75447780095
2023-04-15T10:04:17.603Z,97193.93486666845
2023-04-15T10:07:20.101Z,97182.57225441471
2023-04-15T10:11:17.865Z,97173.62213968363
2023-04-15T10:14:18.006Z,97176.19081183292
2023-04-15T10:17:17.933Z,97182.10329820232
2023-04-15T10:21:20.034Z,97173.2422369941
2023-04-15T10:24:18.026Z,97168.16358528961
2023-04-15T10:27:17.223Z,97174.34430451141
2023-04-15T10:31:17.543Z,97188.92721271585
2023-04-15T10:34:18.239Z,97185.38363774167
2023-04-15T10:37:20.861Z,97186.76354896821
2023-04-15T10:41:21.281Z,97182.03268236789
2023-04-15T10:44:16.992Z,97172.8308949849
2023-04-15T10:47:20.676Z,97165.6802516281
2023-04-15T10:51:25.354Z,97162.13398877959
2023-04-15T10:54:30.801Z,97171.35499362895
2023-04-15T10:57:22.773Z,97164.77798840194
2023-04-15T11:01:16.255Z,97159.55493107872
2023-04-15T11:04:51.325Z,97154.63951650502
2023-04-15T11:07:33.054Z,97155.53145127949
2023-04-15T11:11:15.827Z,97153.63128880138
2023-04-15T11:14:16.471Z,97154.54374017622
2023-04-15T11:17:26.996Z,97144.21169228453
2023-04-15T11:21:16.602Z,97136.04326142283
2023-04-15T11:24:23.840Z,97133.74637022549
2023-04-15T11:27:20.999Z,97139.15315825552
2023-04-15T11:31:17.705Z,97136.47057792646
2023-04-15T11:34:22.617Z,97140.52603107652
2023-04-15T11:37:16.909Z,97140.0674313057
2023-04-15T11:41:20.372Z,97142.17369598661
2023-04-15T11:44:17.944Z,97132.80022273933
2023-04-15T11:47:25.162Z,97125.58162969441
2023-04-15T11:51:16.850Z,97128.02846257872
2023-04-15T11:54:19.182Z,97119.39205598511
2023-04-15T11:57:17.262Z,97115.49352654918
2023-04-15T12:01:17.809Z,97122.09142114958
2023-04-15T12:04:20.651Z,97123.15892147137
2023-04-15T12:07:16.680Z,97120.8290147148
2023-04-15T12:11:17.962Z,97108.22711190778
2023-04-15T12:14:24.253Z,97100.74590684207
2023-04-15T12:17:17.576Z,97101.78839222589
2023-04-15T12:21:18.516Z,97103.57793510749
2023-04-15T12:24:20.598Z,97093.23325366671
2023-04-15T12:27:18.565Z,97094.99668804878
2023-04-15T12:31:17.134Z,97098.34408464043
2023-04-15T12:34:17.520Z,97103.86402436928
2023-04-15T12:37:18.728Z,97102.74081147484
2023-04-15T12:41:16.668Z,97093.97363781203
2023-04-15T12:44:18.847Z,97093.62240536246
2023-04-15T12:47:16.758Z,97092.44767114888
2023-04-15T12:51:16.303Z,97091.3831509969
2023-04-15T12:54:18.772Z,97083.05235606713
2023-04-15T12:57:16.702Z,97077.75820473659
2023-04-15T13:01:17.270Z,97077.45284483394
2023-04-15T13:04:18.362Z,97079.17415949235
2023-04-15T13:07:17.043Z,97079.62813776509
2023-04-15T13:11:15.946Z,97079.59131784274
2023-04-15T13:14:16.609Z,97079.59755587361
2023-04-15T13:17:19.591Z,97075.76286746206
2023-04-15T13:21:17.494Z,97069.73724787124
2023-04-15T13:24:17.236Z,97056.36804369056
2023-04-15T13:27:16.948Z,97053.23063591635
2023-04-15T13:31:16.777Z,97053.60656354889
2023-04-15T13:34:17.150Z,97048.91155186182
2023-04-15T13:37:17.405Z,97049.71781644358
2023-04-15T13:41:16.225Z,97045.66303219457
2023-04-15T13:44:17.387Z,97045.49650678864
2023-04-15T13:47:17.085Z,97038.86857687436
2023-04-15T13:51:16.436Z,97041.7112333769
2023-04-15T13:54:16.683Z,97032.73692895618
2023-04-15T13:57:16.603Z,97027.9042961987
2023-04-15T14:01:16.722Z,97028.37087666302
2023-04-15T14:04:17.189Z,97023.49341400212
2023-04-15T14:07:17.497Z,97021.93793247367
2023-04-15T14:11:16.390Z,97018.21156226944
2023-04-15T14:14:16.849Z,97013.6617732591
2023-04-15T14:17:16.848Z,97008.79746499105
2023-04-15T14:21:16.696Z,97003.23497615146
2023-04-15T14:24:17.346Z,96998.8502151783
2023-04-15T14:27:17.079Z,96994.2325283464
2023-04-15T14:31:15.868Z,96987.72991234931
2023-04-15T14:34:16.865Z,96981.99120248349
2023-04-15T14:37:16.327Z,96973.76568847496
2023-04-15T14:41:16.412Z,96964.70206383681
2023-04-15T14:44:16.663Z,96969.34943876133
2023-04-15T14:47:16.959Z,96964.57997898039
2023-04-15T14:51:16.563Z,96971.9283957444
2023-04-15T14:54:16.745Z,96973.71042537842
2023-04-15T14:57:16.882Z,96979.44179807049
2023-04-15T15:01:16.296Z,96977.27489644574
2023-04-15T15:04:16.570Z,96971.97862845345
2023-04-15T15:07:16.689Z,96973.0657407984
2023-04-15T15:11:16.458Z,96968.12129312514
2023-04-15T15:14:16.684Z,96962.88080101731
2023-04-15T15:17:17.732Z,96963.49638410848
2023-04-15T15:21:16.394Z,96953.83496288572
2023-04-15T15:24:17.384Z,96954.75876844594
2023-04-15T15:27:16.591Z,96954.97387600745
2023-04-15T15:31:16.232Z,96946.16827760039
2023-04-15T15:34:16.606Z,96943.62208211888
2023-04-15T15:37:16.225Z,96937.96812508644
2023-04-15T15:41:16.094Z,96938.03580753639
2023-04-15T15:44:16.371Z,96941.8877443069
2023-04-15T15:47:16.463Z,96933.69869196475
2023-04-15T15:51:16.436Z,96925.29755071961
2023-04-15T15:54:17.262Z,96925.39785693979
2023-04-15T15:57:16.695Z,96921.47761082835
2023-04-15T16:01:17.280Z,96926.73871100976
2023-04-15T16:04:16.926Z,96923.85056316023
2023-04-15T16:07:19.875Z,96919.82174863969
2023-04-15T16:11:16.011Z,96914.64345931113
2023-04-15T16:14:16.681Z,96913.06914317294
2023-04-15T16:17:16.792Z,96910.76150446829
2023-04-15T16:21:16.621Z,96902.09749849416
2023-04-15T16:24:16.990Z,96897.36131580712
2023-04-15T16:27:18.083Z,96891.70873248001
2023-04-15T16:31:16.353Z,96886.41520197407
2023-04-15T16:34:18.643Z,96889.9054789148
2023-04-15T16:37:16.620Z,96878.87816980234
2023-04-15T16:41:17.417Z,96871.31343982098
2023-04-15T16:44:16.597Z,96866.58165434666
2023-04-15T16:47:16.547Z,96869.98525305053
2023-04-15T16:51:16.313Z,96871.36604205184
2023-04-15T16:54:16.570Z,96866.83318473073
2023-04-15T16:57:16.832Z,96864.62145937621
2023-04-15T17:01:16.363Z,96869.27747053777
2023-04-15T17:04:16.694Z,96870.92969156972
2023-04-15T17:07:16.736Z,96867.69598457664
2023-04-15T17:11:16.007Z,96865.96319406081
2023-04-15T17:14:16.550Z,96867.11785676595
2023-04-15T17:17:16.918Z,96861.8617629571
2023-04-15T17:21:16.729Z,96862.21041655628
2023-04-15T17:24:16.218Z,96860.72206183313
2023-04-15T17:27:16.089Z,96860.56445145886
2023-04-15T17:31:17.176Z,96863.74681215652
2023-04-15T17:34:16.891Z,96866.29292754132
2023-04-15T17:37:17.883Z,96867.68217562948
2023-04-15T17:41:17.085Z,96861.32309296764
2023-04-15T17:44:16.809Z,96858.49950633317
2023-04-15T17:47:18.171Z,96861.48887783213
2023-04-15T17:51:17.918Z,96859.41188266344
2023-04-15T17:54:16.663Z,96860.89328546093
2023-04-15T17:57:17.041Z,96866.54280364794
2023-04-15T18:01:16.271Z,96866.727954887
2023-04-15T18:04:16.670Z,96866.13088271773
2023-04-15T18:07:17.180Z,96864.1364118466
2023-04-15T18:11:16.229Z,96866.1509400754
2023-04-15T18:14:30.570Z,96867.11771797549
2023-04-15T18:17:16.404Z,96866.85695026402
2023-04-15T18:21:16.745Z,96872.59496055594
2023-04-15T18:24:17.231Z,96880.67674603584
2023-04-15T18:27:17.327Z,96885.01479886517
2023-04-15T18:31:16.309Z,96885.97947317491
2023-04-15T18:34:16.601Z,96890.31881455501
2023-04-15T18:37:16.583Z,96887.58672632012
2023-04-15T18:41:16.526Z,96887.96953069522
2023-04-15T18:44:16.738Z,96885.13579816774
2023-04-15T18:47:16.817Z,96894.13547722192
2023-04-15T18:51:16.461Z,96890.94917040541
2023-04-15T18:54:16.719Z,96898.44792916057
2023-04-15T18:57:16.768Z,96900.13668392095
2023-04-15T19:01:16.332Z,96895.72601907128
2023-04-15T19:04:16.699Z,96893.26757418636
2023-04-15T19:07:16.525Z,96889.37048063155
2023-04-15T19:11:16.096Z,96890.66131011388
2023-04-15T19:14:17.062Z,96890.40541595682
2023-04-15T19:17:16.530Z,96889.87520928694
2023-04-15T19:21:16.615Z,96888.53128080902
2023-04-15T19:24:18.233Z,96887.47091964516
2023-04-15T19:27:16.904Z,96883.08465411515
2023-04-15T19:31:16.044Z,96892.71519856939
2023-04-15T19:34:16.455Z,96889.62780251718
2023-04-15T19:37:16.992Z,96882.89559746068
2023-04-15T19:41:15.823Z,96878.80657162004
2023-04-15T19:44:16.512Z,96879.01331394404
2023-04-15T19:47:16.580Z,96877.8265986237
2023-04-15T19:51:16.666Z,96876.16075838485
2023-04-15T19:54:17.074Z,96874.5343119424
2023-04-15T19:57:17.027Z,96869.73662685201
2023-04-15T20:01:16.843Z,96871.75986630327
2023-04-15T20:04:16.777Z,96864.6620395752
2023-04-15T20:07:16.884Z,96864.10123264244
2023-04-15T20:11:15.936Z,96865.73769050892
2023-04-15T20:14:17.054Z,96866.65356351875
2023-04-15T20:17:16.243Z,96863.44245553046
2023-04-15T20:21:17.323Z,96858.4696716283
2023-04-15T20:24:18.166Z,96857.55973379631
2023-04-15T20:27:17.139Z,96855.7701451921
2023-04-15T20:31:15.951Z,96853.28638384693
2023-04-15T20:34:16.469Z,96858.13657750945
2023-04-15T20:37:17.159Z,96861.55334724484
2023-04-15T20:41:15.796Z,96861.48734550437
2023-04-15T20:44:16.147Z,96862.8815764256
2023-04-15T20:47:16.861Z,96861.8467403467
2023-04-15T20:51:16.620Z,96861.0252454581
2023-04-15T20:54:19.338Z,96863.10265622765
2023-04-15T20:57:17.388Z,96861.9959344443
2023-04-15T21:01:16.967Z,96867.49937030788
2023-04-15T21:04:17.564Z,96870.54399686794
2023-04-15T21:07:17.546Z,96869.3955849758
2023-04-15T21:11:24.465Z,96865.6827869762
2023-04-15T21:14:16.881Z,96862.88210649029
2023-04-15T21:17:16.463Z,96863.87860133874
2023-04-15T21:21:16.106Z,96853.36432445174
2023-04-15T21:24:16.285Z,96854.96371860366
2023-04-15T21:27:16.275Z,96856.21987412784
2023-04-15T21:31:16.274Z,96849.98951333287
2023-04-15T21:34:17.098Z,96839.53114697261
2023-04-15T21:37:16.618Z,96845.83977663593
2023-04-15T21:41:16.889Z,96856.68395934056
2023-04-15T21:44:17.253Z,96847.53346925028
2023-04-15T21:47:17.125Z,96850.34143076054
2023-04-15T21:51:16.673Z,96854.68811265832
2023-04-15T21:54:16.825Z,96857.61207506889
2023-04-15T21:57:17.056Z,96855.76581380185
2023-04-15T22:01:17.544Z,96861.25678199386
2023-04-15T22:04:18.468Z,96860.59059339977
2023-04-15T22:07:17.388Z,96862.03815843572
2023-04-15T22:11:20.460Z,96867.55249993246
2023-04-15T22:14:16.667Z,96877.31737397183
2023-04-15T22:17:16.483Z,96878.83220609732
2023-04-15T22:21:19.290Z,96885.02191850223
2023-04-15T22:24:32.565Z,96884.98028270013
2023-04-15T22:27:16.876Z,96891.37034327355
2023-04-15T22:31:17.148Z,96894.14078597218
2023-04-15T22:34:21.624Z,96902.53961941376
2023-04-15T22:37:16.791Z,96905.96703303314
2023-04-15T22:41:16.992Z,96909.94895847715
2023-04-15T22:44:16.983Z,96913.54835717427
2023-04-15T22:47:17.654Z,96917.1836671289
2023-04-15T22:51:21.735Z,96914.7538775147
2023-04-15T22:54:18.845Z,96912.78551868931
2023-04-15T22:57:18.168Z,96920.19960678577
2023-04-15T23:01:18.332Z,96923.65560114851
2023-04-15T23:04:27.096Z,96934.18709998929
2023-04-15T23:07:17.534Z,96935.1275266761
2023-04-15T23:11:16.217Z,96939.97222883934
2023-04-15T23:14:16.726Z,96942.81125660945
2023-04-15T23:17:16.214Z,96945.63497589531
2023-04-15T23:21:17.045Z,96951.68387834761
2023-04-15T23:24:16.915Z,96953.15131263266
2023-04-15T23:27:19.085Z,96953.52229086097
2023-04-15T23:31:16.501Z,96956.64446875568
2023-04-15T23:34:16.752Z,96961.81956156818
2023-04-15T23:37:17.357Z,96957.29586430777
2023-04-15T23:41:16.532Z,96961.90644486956
2023-04-15T23:44:16.547Z,96960.33203742854
2023-04-15T23:47:16.661Z,96965.48923640784
2023-04-15T23:51:16.694Z,96966.78743384183
2023-04-15T23:54:17.055Z,96961.0219111863
2023-04-15T23:57:17.114Z,96963.8892504331
